Time;durP1;ratioP1;P1;durP2;ratioP2;P2;SDS_P1;SDS_P2;PMS_P1;PMS_P2;Temp;Humidity;BMP_temperature;BMP_pressure;BME280_temperature;BME280_humidity;BME280_pressure;Samples;Min_cycle;Max_cycle;Signal;HPM_P1;HPM_P2
2021/10/07 00:00:36;;;;;;;9.27;2.40;;;14.20;99.90;;;;;;5081445;28;37019;-77
2021/10/07 00:03:03;;;;;;;13.88;2.60;;;14.20;99.90;;;;;;5083787;28;41244;-77
2021/10/07 00:05:29;;;;;;;11.23;2.33;;;14.10;99.90;;;;;;5063851;28;38506;-77
2021/10/07 00:07:55;;;;;;;13.65;2.72;;;14.10;99.90;;;;;;5083775;28;38034;-77
2021/10/07 00:10:22;;;;;;;19.95;3.55;;;14.10;99.90;;;;;;5081930;28;37902;-77
2021/10/07 00:12:48;;;;;;;22.27;4.57;;;14.10;99.90;;;;;;5059216;28;38852;-77
2021/10/07 00:15:14;;;;;;;17.05;3.47;;;14.20;99.90;;;;;;5063387;28;38874;-77
2021/10/07 00:17:40;;;;;;;20.27;4.18;;;14.20;99.90;;;;;;5054201;28;38578;-77
2021/10/07 00:20:09;;;;;;;19.55;4.22;;;14.30;99.90;;;;;;5084758;28;37296;-78
2021/10/07 00:22:35;;;;;;;23.75;4.97;;;14.30;99.90;;;;;;5083360;28;39179;-77
2021/10/07 00:25:01;;;;;;;24.13;4.13;;;14.30;99.90;;;;;;5086330;28;38253;-77
2021/10/07 00:27:27;;;;;;;14.13;3.40;;;14.30;99.90;;;;;;5082136;28;47082;-77
2021/10/07 00:29:58;;;;;;;18.00;3.13;;;14.30;99.90;;;;;;5084580;28;37722;-77
2021/10/07 00:32:32;;;;;;;13.48;2.97;;;14.30;99.90;;;;;;5080742;28;39162;-77
2021/10/07 00:40:07;;;;;;;11.05;2.33;;;14.10;99.90;;;;;;5082604;28;37344;-77
2021/10/07 00:42:33;;;;;;;14.75;3.45;;;14.10;99.90;;;;;;5054746;28;46816;-78
2021/10/07 00:44:59;;;;;;;14.95;2.72;;;14.00;99.90;;;;;;5061784;28;40268;-77
2021/10/07 00:47:25;;;;;;;15.20;2.63;;;14.00;99.90;;;;;;5063463;28;38635;-77
2021/10/07 00:49:51;;;;;;;15.70;3.15;;;14.00;99.90;;;;;;5063263;28;38055;-77
2021/10/07 00:52:19;;;;;;;17.70;3.25;;;14.00;99.90;;;;;;5084085;28;38675;-77
2021/10/07 00:54:48;;;;;;;21.83;3.83;;;14.00;99.90;;;;;;5080760;28;39316;-77
2021/10/07 00:57:18;;;;;;;18.05;3.47;;;14.10;99.90;;;;;;5065622;28;36638;-77
2021/10/07 00:59:49;;;;;;;21.95;3.85;;;14.10;99.90;;;;;;5084425;28;38194;-77
2021/10/07 01:02:15;;;;;;;15.90;3.42;;;14.10;99.90;;;;;;5080113;28;38869;-77
2021/10/07 01:04:43;;;;;;;18.38;3.60;;;14.10;99.90;;;;;;5062448;28;38853;-77
2021/10/07 01:07:09;;;;;;;16.98;3.25;;;14.10;99.90;;;;;;5059918;28;39611;-77
2021/10/07 01:09:35;;;;;;;19.30;3.92;;;14.10;99.90;;;;;;5063283;28;38811;-77
2021/10/07 01:12:04;;;;;;;27.98;4.43;;;14.20;99.90;;;;;;5079650;28;40266;-77
2021/10/07 01:14:44;;;;;;;15.15;3.75;;;14.20;99.90;;;;;;5084600;28;39779;-77
2021/10/07 01:17:21;;;;;;;18.27;4.20;;;14.20;99.90;;;;;;5064609;28;38065;-77
2021/10/07 01:19:52;;;;;;;19.05;3.50;;;14.20;99.90;;;;;;5055912;28;38489;-77
2021/10/07 01:22:20;;;;;;;19.35;3.53;;;14.30;99.90;;;;;;5062053;28;39477;-77
2021/10/07 01:24:47;;;;;;;19.08;3.90;;;14.30;99.90;;;;;;5066545;28;39029;-78
2021/10/07 01:27:14;;;;;;;19.83;4.10;;;14.30;99.90;;;;;;5062497;28;38780;-77
2021/10/07 01:29:41;;;;;;;20.55;3.88;;;14.30;99.90;;;;;;5081865;28;36703;-77
2021/10/07 01:32:08;;;;;;;19.88;3.78;;;14.30;99.90;;;;;;5061328;28;40275;-77
2021/10/07 01:34:35;;;;;;;10.57;4.20;;;14.30;99.90;;;;;;5064593;28;38666;-77
2021/10/07 01:37:03;;;;;;;21.05;4.10;;;14.30;99.90;;;;;;5082492;28;38216;-77
2021/10/07 01:39:29;;;;;;;20.85;4.50;;;14.30;99.90;;;;;;5084821;28;48460;-77
2021/10/07 01:41:55;;;;;;;18.70;4.30;;;14.40;99.90;;;;;;5080586;28;38880;-77
2021/10/07 01:44:23;;;;;;;17.30;3.65;;;14.30;99.90;;;;;;5065101;28;39181;-77
2021/10/07 01:46:50;;;;;;;19.63;4.43;;;14.40;99.90;;;;;;5075434;28;38678;-77
2021/10/07 01:49:17;;;;;;;25.80;4.95;;;14.40;99.90;;;;;;5067750;28;37636;-77
2021/10/07 01:51:43;;;;;;;25.83;4.13;;;14.40;99.90;;;;;;5083323;28;39412;-77
2021/10/07 01:54:09;;;;;;;20.10;3.97;;;14.40;99.90;;;;;;5081610;28;38165;-76
2021/10/07 01:56:36;;;;;;;15.05;3.20;;;14.40;99.90;;;;;;5061790;28;38528;-77
2021/10/07 01:59:02;;;;;;;14.52;3.20;;;14.40;99.90;;;;;;5085414;28;37473;-77
2021/10/07 02:01:28;;;;;;;13.75;3.65;;;14.40;99.90;;;;;;5082856;28;38963;-77
2021/10/07 02:03:54;;;;;;;16.48;3.55;;;14.40;99.90;;;;;;5066291;28;39011;-76
2021/10/07 02:06:20;;;;;;;15.85;2.83;;;14.40;99.90;;;;;;5064489;28;38578;-77
2021/10/07 02:08:46;;;;;;;14.18;3.08;;;14.40;99.90;;;;;;5078576;28;36720;-77
2021/10/07 02:11:12;;;;;;;16.90;3.05;;;14.40;99.90;;;;;;5058598;28;38083;-77
2021/10/07 02:13:39;;;;;;;16.52;3.05;;;14.40;99.90;;;;;;5081553;28;38996;-77
2021/10/07 02:16:05;;;;;;;16.55;2.50;;;14.30;99.90;;;;;;5066924;28;39089;-76
2021/10/07 02:18:31;;;;;;;17.13;2.72;;;14.30;99.90;;;;;;5068673;28;38821;-77
2021/10/07 02:20:58;;;;;;;14.98;2.33;;;14.40;99.90;;;;;;5067701;28;40223;-76
2021/10/07 02:23:24;;;;;;;11.32;2.10;;;14.40;99.90;;;;;;5086133;28;38696;-77
2021/10/07 02:25:50;;;;;;;15.20;2.65;;;14.40;99.90;;;;;;5059623;28;39664;-77
2021/10/07 02:28:16;;;;;;;19.27;2.60;;;14.40;99.90;;;;;;5084698;28;37297;-77
2021/10/07 02:30:43;;;;;;;19.45;2.60;;;14.50;99.90;;;;;;5070403;28;39236;-77
2021/10/07 02:33:10;;;;;;;15.90;2.60;;;14.50;99.90;;;;;;5083196;28;38495;-77
2021/10/07 02:35:36;;;;;;;13.82;1.77;;;14.50;99.90;;;;;;5083814;28;37939;-77
2021/10/07 02:38:03;;;;;;;14.90;2.30;;;14.50;99.90;;;;;;5070503;28;36120;-77
2021/10/07 02:40:31;;;;;;;14.48;2.80;;;14.60;99.90;;;;;;5071548;28;37770;-77
2021/10/07 02:42:58;;;;;;;21.15;2.95;;;14.50;99.90;;;;;;5067142;28;38815;-77
2021/10/07 02:45:26;;;;;;;12.68;1.80;;;14.50;99.90;;;;;;5085320;28;39060;-77
2021/10/07 02:47:52;;;;;;;13.60;2.13;;;14.60;99.90;;;;;;5085163;28;37047;-77
2021/10/07 02:50:23;;;;;;;12.23;1.85;;;14.60;99.90;;;;;;5065548;28;39125;-77
2021/10/07 02:52:49;;;;;;;17.35;2.35;;;14.60;99.90;;;;;;5086143;28;39369;-77
2021/10/07 02:55:16;;;;;;;20.60;2.70;;;14.60;99.90;;;;;;5070407;28;37762;-77
2021/10/07 02:57:42;;;;;;;16.38;3.50;;;14.50;99.90;;;;;;5063261;28;36208;-77
2021/10/07 03:00:10;;;;;;;10.27;2.38;;;14.50;99.90;;;;;;5078308;28;39452;-77
2021/10/07 03:02:36;;;;;;;11.93;2.38;;;14.50;99.90;;;;;;5086994;28;38242;-76
2021/10/07 03:05:04;;;;;;;9.20;2.20;;;14.50;99.90;;;;;;5084421;28;38220;-76
2021/10/07 03:07:30;;;;;;;10.40;2.15;;;14.50;99.90;;;;;;5080333;28;47637;-77
2021/10/07 03:09:57;;;;;;;13.35;2.17;;;14.50;99.90;;;;;;5082246;28;37325;-77
2021/10/07 03:12:23;;;;;;;13.38;1.90;;;14.50;99.90;;;;;;5085780;28;38412;-77
2021/10/07 03:14:49;;;;;;;11.38;2.20;;;14.50;99.90;;;;;;5060141;28;36888;-77
2021/10/07 03:17:18;;;;;;;14.63;1.90;;;14.50;99.90;;;;;;5066298;28;36792;-77
2021/10/07 03:19:44;;;;;;;11.98;2.30;;;14.50;99.90;;;;;;5085141;28;39648;-77
2021/10/07 03:22:11;;;;;;;10.77;2.10;;;14.50;99.90;;;;;;5060051;28;38368;-77
2021/10/07 03:24:37;;;;;;;16.88;2.97;;;14.50;99.90;;;;;;5083551;28;38707;-77
2021/10/07 03:27:04;;;;;;;9.80;1.77;;;14.50;99.90;;;;;;5063031;28;36764;-77
2021/10/07 03:29:30;;;;;;;11.70;2.13;;;14.50;99.90;;;;;;5085514;28;38831;-76
2021/10/07 03:31:57;;;;;;;11.23;2.25;;;14.50;99.90;;;;;;5081279;28;38740;-77
2021/10/07 03:34:23;;;;;;;13.48;1.92;;;14.50;99.90;;;;;;5085531;28;39019;-77
2021/10/07 03:36:50;;;;;;;10.52;2.03;;;14.60;99.90;;;;;;5072306;28;37604;-77
2021/10/07 03:39:17;;;;;;;15.00;2.13;;;14.60;99.90;;;;;;5085124;28;38767;-77
2021/10/07 03:41:43;;;;;;;12.07;1.77;;;14.60;99.90;;;;;;5066704;28;38805;-77
2021/10/07 03:44:09;;;;;;;13.82;2.40;;;14.60;99.90;;;;;;5073921;28;38149;-77
2021/10/07 03:46:35;;;;;;;16.75;2.35;;;14.60;99.90;;;;;;5062452;28;38202;-77
2021/10/07 03:49:01;;;;;;;14.05;2.33;;;14.60;99.90;;;;;;5064396;28;39620;-77
2021/10/07 03:51:27;;;;;;;12.73;2.00;;;14.60;99.90;;;;;;5074475;28;47468;-77
2021/10/07 03:53:53;;;;;;;8.07;1.77;;;14.60;99.90;;;;;;5062723;28;39001;-76
2021/10/07 03:56:19;;;;;;;14.40;2.35;;;14.60;99.90;;;;;;5067986;28;37313;-76
2021/10/07 03:58:45;;;;;;;14.52;2.70;;;14.60;99.90;;;;;;5081889;28;38793;-76
2021/10/07 04:01:12;;;;;;;20.65;2.47;;;14.60;99.90;;;;;;5082980;28;38917;-77
2021/10/07 04:03:38;;;;;;;16.05;2.58;;;14.60;99.90;;;;;;5067577;27;38968;-77
2021/10/07 04:06:04;;;;;;;11.73;2.20;;;14.60;99.90;;;;;;5058996;28;38989;-77
2021/10/07 04:08:30;;;;;;;12.38;2.20;;;14.60;99.90;;;;;;5086071;28;39205;-77
2021/10/07 04:10:56;;;;;;;16.95;2.28;;;14.60;99.90;;;;;;5067168;28;39673;-76
2021/10/07 04:13:24;;;;;;;11.00;2.28;;;14.60;99.90;;;;;;5067306;28;39018;-77
2021/10/07 04:15:51;;;;;;;8.30;1.98;;;14.60;99.90;;;;;;5065133;28;38049;-79
2021/10/07 04:18:18;;;;;;;17.33;2.45;;;14.60;99.90;;;;;;5082731;28;39596;-78
2021/10/07 04:20:46;;;;;;;10.60;2.33;;;14.60;99.90;;;;;;5081927;28;38534;-78
2021/10/07 04:23:12;;;;;;;10.85;2.42;;;14.70;99.90;;;;;;5079244;28;40072;-78
2021/10/07 04:25:38;;;;;;;11.80;2.20;;;14.70;99.90;;;;;;5065310;28;38108;-78
2021/10/07 04:28:06;;;;;;;15.50;1.75;;;14.70;99.90;;;;;;5082875;28;40480;-78
2021/10/07 04:30:34;;;;;;;13.02;2.42;;;14.70;99.90;;;;;;5079541;28;38510;-78
2021/10/07 04:33:03;;;;;;;12.57;2.10;;;14.70;99.90;;;;;;5064838;28;38811;-78
2021/10/07 04:35:29;;;;;;;12.85;1.88;;;14.70;99.90;;;;;;5063947;28;47195;-79
2021/10/07 04:37:55;;;;;;;11.10;2.35;;;14.70;99.90;;;;;;5083020;28;39806;-78
2021/10/07 04:40:22;;;;;;;13.30;2.72;;;14.70;99.90;;;;;;5065048;28;39913;-78
2021/10/07 04:42:48;;;;;;;7.28;2.17;;;14.70;99.90;;;;;;5065184;28;38549;-78
2021/10/07 04:45:14;;;;;;;11.55;2.10;;;14.70;99.90;;;;;;5080739;28;37735;-78
2021/10/07 04:47:41;;;;;;;14.20;1.90;;;14.70;99.90;;;;;;5077988;28;39459;-78
2021/10/07 04:50:07;;;;;;;11.93;2.25;;;14.70;99.90;;;;;;5083960;28;39922;-78
2021/10/07 04:52:34;;;;;;;11.30;2.00;;;14.70;99.90;;;;;;5082537;28;39033;-78
2021/10/07 04:55:00;;;;;;;11.98;1.92;;;14.70;99.90;;;;;;5060594;28;38721;-78
2021/10/07 04:57:26;;;;;;;13.90;1.92;;;14.60;99.90;;;;;;5061604;28;39610;-78
2021/10/07 04:59:52;;;;;;;9.10;2.38;;;14.60;99.90;;;;;;5063166;28;39027;-78
2021/10/07 05:02:18;;;;;;;12.98;2.83;;;14.60;99.90;;;;;;5080976;28;38320;-78
2021/10/07 05:04:44;;;;;;;11.05;1.70;;;14.40;99.90;;;;;;5082532;28;37448;-78
2021/10/07 05:07:10;;;;;;;10.65;2.40;;;14.30;99.90;;;;;;5081589;28;40071;-78
2021/10/07 05:09:36;;;;;;;9.38;2.10;;;14.30;99.90;;;;;;5084415;28;39239;-78
2021/10/07 05:12:03;;;;;;;8.63;1.75;;;14.20;99.90;;;;;;5083316;28;37141;-78
2021/10/07 05:14:29;;;;;;;8.23;1.88;;;14.10;99.90;;;;;;5059833;28;37884;-77
2021/10/07 05:16:55;;;;;;;12.80;2.53;;;14.00;99.90;;;;;;5062245;28;39074;-78
2021/10/07 05:19:21;;;;;;;9.93;2.20;;;14.00;99.90;;;;;;5064628;28;38288;-78
2021/10/07 05:21:47;;;;;;;9.38;2.20;;;13.90;99.90;;;;;;5078150;28;37908;-78
2021/10/07 05:24:13;;;;;;;10.05;2.15;;;13.80;99.90;;;;;;5065298;28;37298;-78
2021/10/07 05:26:39;;;;;;;10.73;2.05;;;13.80;99.90;;;;;;5064478;28;39483;-78
2021/10/07 05:29:05;;;;;;;10.98;2.78;;;13.80;99.90;;;;;;5064983;28;37425;-78
2021/10/07 05:31:31;;;;;;;9.60;2.55;;;13.70;99.90;;;;;;5082832;28;37822;-77
2021/10/07 05:33:57;;;;;;;12.05;2.67;;;13.70;99.90;;;;;;5081845;28;37023;-78
2021/10/07 05:36:23;;;;;;;8.68;2.53;;;13.60;99.90;;;;;;5062766;28;38655;-78
2021/10/07 05:38:49;;;;;;;13.13;2.63;;;13.50;99.90;;;;;;5060566;28;39815;-78
2021/10/07 05:41:16;;;;;;;8.52;2.63;;;13.50;99.90;;;;;;5074070;28;37975;-78
2021/10/07 05:43:42;;;;;;;16.08;3.35;;;13.50;99.90;;;;;;5081018;28;37899;-77
2021/10/07 05:46:08;;;;;;;11.40;3.53;;;13.40;99.90;;;;;;5067915;28;40464;-78
2021/10/07 05:48:36;;;;;;;14.70;2.88;;;13.40;99.90;;;;;;5059226;28;37156;-78
2021/10/07 05:51:02;;;;;;;12.90;3.80;;;13.30;99.90;;;;;;5074489;28;39889;-77
2021/10/07 05:53:29;;;;;;;12.15;2.50;;;13.20;99.90;;;;;;5083377;28;37104;-77
2021/10/07 05:55:55;;;;;;;10.90;2.78;;;13.20;99.90;;;;;;5074973;27;38852;-78
2021/10/07 05:58:21;;;;;;;7.60;2.35;;;13.00;99.90;;;;;;5062377;28;39343;-77
2021/10/07 06:00:48;;;;;;;6.93;3.35;;;12.90;99.90;;;;;;5082254;28;39021;-77
2021/10/07 06:03:14;;;;;;;12.30;3.83;;;12.90;99.90;;;;;;5062797;28;38152;-77
2021/10/07 06:05:40;;;;;;;9.23;2.80;;;12.80;99.90;;;;;;5068668;28;39481;-77
2021/10/07 06:08:07;;;;;;;10.18;2.67;;;12.70;99.90;;;;;;5060547;28;39865;-77
2021/10/07 06:10:34;;;;;;;8.80;3.28;;;12.70;99.90;;;;;;5079244;28;37959;-77
2021/10/07 06:13:01;;;;;;;7.78;2.67;;;12.60;99.90;;;;;;5062784;28;39047;-77
2021/10/07 06:15:27;;;;;;;11.40;3.58;;;12.60;99.90;;;;;;5047280;28;48766;-77
2021/10/07 06:17:54;;;;;;;8.93;2.80;;;12.50;99.90;;;;;;5045188;28;39156;-75
2021/10/07 06:20:30;;;;;;;7.30;2.80;;;12.50;99.90;;;;;;5039730;28;39067;-75
2021/10/07 06:22:56;;;;;;;10.40;3.55;;;12.50;99.90;;;;;;5042038;28;34756;-77
2021/10/07 06:25:23;;;;;;;12.13;3.70;;;12.40;99.90;;;;;;5042885;28;39621;-75
2021/10/07 06:27:50;;;;;;;7.75;2.70;;;12.30;99.90;;;;;;5042109;28;39751;-76
2021/10/07 06:30:17;;;;;;;5.93;3.15;;;12.30;99.90;;;;;;5038639;28;38302;-75
2021/10/07 06:32:44;;;;;;;7.40;2.85;;;12.30;99.90;;;;;;5036812;28;38013;-78
2021/10/07 06:35:11;;;;;;;8.05;3.20;;;12.20;99.90;;;;;;5042845;28;43299;-75
2021/10/07 06:37:37;;;;;;;10.98;3.95;;;12.20;99.90;;;;;;5044292;28;39243;-77
2021/10/07 06:40:06;;;;;;;8.07;3.33;;;12.20;99.90;;;;;;5037433;28;38737;-75
2021/10/07 06:42:32;;;;;;;8.38;3.38;;;12.10;99.90;;;;;;5037467;28;49015;-75
2021/10/07 06:44:58;;;;;;;9.85;3.50;;;12.10;99.90;;;;;;5043307;28;36767;-78
2021/10/07 06:47:25;;;;;;;11.20;3.90;;;12.10;99.90;;;;;;5042186;28;38730;-77
2021/10/07 06:49:52;;;;;;;7.63;3.53;;;12.10;99.90;;;;;;5045532;28;38174;-78
2021/10/07 06:52:18;;;;;;;10.57;5.00;;;12.10;99.90;;;;;;5041292;28;38075;-78
2021/10/07 06:54:45;;;;;;;8.52;4.22;;;12.10;99.90;;;;;;5048396;28;38272;-76
2021/10/07 06:57:11;;;;;;;10.98;4.28;;;12.10;99.90;;;;;;5043196;28;40132;-78
2021/10/07 06:59:37;;;;;;;18.33;6.45;;;12.10;99.90;;;;;;5046512;28;38920;-78
2021/10/07 07:02:04;;;;;;;9.38;4.60;;;12.20;99.90;;;;;;5040891;28;36919;-78
2021/10/07 07:04:30;;;;;;;13.80;5.50;;;12.20;99.90;;;;;;5039152;28;38800;-78
2021/10/07 07:06:56;;;;;;;14.23;5.72;;;12.30;99.90;;;;;;5031873;28;39048;-76
2021/10/07 07:09:22;;;;;;;14.27;7.30;;;12.30;99.90;;;;;;5038160;28;37442;-78
2021/10/07 07:11:48;;;;;;;15.60;6.13;;;12.30;99.90;;;;;;5057632;28;36383;-78
2021/10/07 07:14:14;;;;;;;14.13;7.03;;;12.30;99.90;;;;;;5056048;28;38835;-77
2021/10/07 07:16:40;;;;;;;19.77;7.50;;;12.40;99.90;;;;;;5084614;28;38333;-75
2021/10/07 07:19:08;;;;;;;20.70;7.40;;;12.40;99.90;;;;;;5085762;27;37931;-75
2021/10/07 07:21:35;;;;;;;17.80;7.47;;;12.40;99.90;;;;;;5061921;28;36034;-75
2021/10/07 07:24:02;;;;;;;21.67;8.25;;;12.50;99.90;;;;;;5064500;28;38926;-75
2021/10/07 07:26:31;;;;;;;15.32;8.02;;;12.50;99.90;;;;;;5082604;28;48327;-75
2021/10/07 07:28:58;;;;;;;12.02;6.60;;;12.60;99.90;;;;;;5063571;28;38676;-75
2021/10/07 07:31:25;;;;;;;17.80;6.38;;;12.60;99.90;;;;;;5061722;28;36018;-75
2021/10/07 07:33:52;;;;;;;22.67;6.95;;;12.70;99.90;;;;;;5071709;28;38362;-75
2021/10/07 07:36:21;;;;;;;15.85;6.28;;;12.90;99.90;;;;;;5080646;28;38131;-76
2021/10/07 07:38:49;;;;;;;20.58;6.63;;;13.00;99.90;;;;;;5066319;28;38794;-75
2021/10/07 07:41:16;;;;;;;15.32;4.90;;;13.10;99.90;;;;;;5059329;28;37181;-76
2021/10/07 07:43:43;;;;;;;17.02;5.55;;;13.20;99.90;;;;;;5060877;28;39099;-75
2021/10/07 07:46:10;;;;;;;12.82;5.47;;;13.30;99.90;;;;;;5082672;27;38274;-74
2021/10/07 07:48:36;;;;;;;17.05;6.72;;;13.40;99.90;;;;;;5083217;27;38472;-76
2021/10/07 07:51:03;;;;;;;17.02;5.90;;;13.50;99.90;;;;;;5061006;28;35903;-76
2021/10/07 07:53:29;;;;;;;18.15;5.65;;;13.50;99.90;;;;;;5069295;28;39843;-78
2021/10/07 07:55:56;;;;;;;18.08;4.88;;;13.50;99.90;;;;;;5063763;28;37340;-78
2021/10/07 07:58:23;;;;;;;18.33;4.95;;;13.60;99.90;;;;;;5081645;28;37756;-78
2021/10/07 08:00:51;;;;;;;15.63;5.65;;;13.70;99.90;;;;;;5078466;28;37907;-78
2021/10/07 08:03:17;;;;;;;18.17;5.32;;;13.80;99.90;;;;;;5074684;28;37564;-78
2021/10/07 08:05:43;;;;;;;14.45;5.40;;;13.80;99.90;;;;;;5078938;27;38187;-78
2021/10/07 08:08:10;;;;;;;16.23;4.68;;;14.00;99.90;;;;;;5077476;28;37924;-78
2021/10/07 08:10:36;;;;;;;9.27;4.50;;;14.00;99.90;;;;;;5074760;28;37900;-78
2021/10/07 08:13:03;;;;;;;19.90;4.50;;;14.10;99.90;;;;;;5060118;28;37664;-79
2021/10/07 08:15:29;;;;;;;10.52;3.33;;;14.20;99.90;;;;;;5077660;28;37351;-80
2021/10/07 08:17:55;;;;;;;12.80;3.78;;;14.30;99.90;;;;;;5081523;27;37969;-80
2021/10/07 08:20:21;;;;;;;15.25;3.78;;;14.50;99.90;;;;;;5060280;28;38821;-80
2021/10/07 08:22:49;;;;;;;15.35;3.33;;;14.70;99.90;;;;;;5060933;28;39592;-80
2021/10/07 08:25:17;;;;;;;13.20;3.63;;;14.90;99.90;;;;;;5060486;28;39223;-80
2021/10/07 08:27:44;;;;;;;11.32;3.00;;;15.10;99.90;;;;;;5084376;27;38144;-79
2021/10/07 08:30:12;;;;;;;12.65;3.20;;;15.10;99.90;;;;;;5070551;28;37625;-79
2021/10/07 08:32:39;;;;;;;10.18;2.65;;;15.20;99.90;;;;;;5061609;28;40436;-79
2021/10/07 08:35:06;;;;;;;10.18;2.80;;;15.20;99.90;;;;;;5062727;28;39317;-79
2021/10/07 08:37:33;;;;;;;15.27;3.28;;;15.30;99.90;;;;;;5079165;28;35565;-79
2021/10/07 08:40:01;;;;;;;9.52;2.20;;;15.50;99.90;;;;;;5057699;28;37490;-79
2021/10/07 08:42:28;;;;;;;12.60;2.10;;;15.80;99.90;;;;;;5058182;28;48507;-80
2021/10/07 08:44:55;;;;;;;7.97;1.70;;;16.00;99.90;;;;;;5059599;28;40548;-79
2021/10/07 08:47:22;;;;;;;12.18;1.85;;;16.10;99.90;;;;;;5081345;27;37848;-80
2021/10/07 08:49:50;;;;;;;7.13;1.40;;;16.30;99.90;;;;;;5083558;28;37102;-79
2021/10/07 08:52:17;;;;;;;8.77;1.77;;;16.30;99.90;;;;;;5060539;28;39718;-78
2021/10/07 08:54:43;;;;;;;7.55;1.52;;;16.40;99.90;;;;;;5081566;28;38351;-79
2021/10/07 08:57:10;;;;;;;8.70;1.58;;;16.40;99.90;;;;;;5081928;27;38987;-81
2021/10/07 08:59:37;;;;;;;7.03;1.33;;;16.50;99.90;;;;;;5063232;28;20145;-81
2021/10/07 09:02:07;;;;;;;8.50;1.58;;;16.60;99.90;;;;;;5079902;28;38646;-80
2021/10/07 09:04:36;;;;;;;7.18;1.50;;;16.60;99.90;;;;;;5071014;28;40310;-81
2021/10/07 09:07:07;;;;;;;7.25;1.80;;;16.60;99.90;;;;;;5078792;27;38456;-80
2021/10/07 09:09:36;;;;;;;5.30;1.38;;;16.70;99.90;;;;;;5076939;28;37308;-81
2021/10/07 09:12:06;;;;;;;7.10;1.40;;;16.80;99.90;;;;;;5058819;27;39400;-80
2021/10/07 09:14:35;;;;;;;11.30;1.67;;;16.80;99.90;;;;;;5081945;28;39735;-81
2021/10/07 09:17:03;;;;;;;8.98;1.63;;;16.90;99.90;;;;;;5082214;27;37760;-79
2021/10/07 09:19:32;;;;;;;8.05;1.58;;;16.80;99.90;;;;;;5081827;28;37958;-80
2021/10/07 09:22:11;;;;;;;4.78;1.20;;;16.80;99.90;;;;;;5060553;28;39536;-81
2021/10/07 09:24:41;;;;;;;4.80;1.27;;;16.90;99.90;;;;;;5080019;28;48797;-81
2021/10/07 09:27:13;;;;;;;10.23;1.55;;;17.00;99.90;;;;;;5063043;28;39749;-80
2021/10/07 09:30:00;;;;;;;6.43;1.45;;;16.90;99.90;;;;;;5065956;28;38073;-81
2021/10/07 09:32:37;;;;;;;7.22;1.48;;;17.00;99.90;;;;;;5077417;28;42262;-80
2021/10/07 09:35:05;;;;;;;9.57;1.75;;;17.00;99.90;;;;;;5061272;28;39103;-78
2021/10/07 09:37:35;;;;;;;8.82;1.45;;;16.90;99.90;;;;;;5050674;28;47529;-80
2021/10/07 09:40:18;;;;;;;6.03;1.35;;;16.90;99.90;;;;;;5062895;28;39082;-80
2021/10/07 09:42:52;;;;;;;6.47;1.40;;;17.00;99.90;;;;;;5066249;28;48689;-80
2021/10/07 09:45:30;;;;;;;6.03;1.17;;;17.00;99.90;;;;;;5059576;27;39130;-80
2021/10/07 09:48:01;;;;;;;5.55;1.40;;;17.00;99.90;;;;;;5068072;28;38743;-81
2021/10/07 09:50:41;;;;;;;5.15;1.23;;;17.00;99.90;;;;;;5074537;28;49635;-80
2021/10/07 09:53:16;;;;;;;7.05;1.30;;;17.00;99.90;;;;;;5059288;28;40770;-80
2021/10/07 09:55:48;;;;;;;6.60;1.65;;;17.10;99.90;;;;;;5076495;28;39250;-81
2021/10/07 09:58:15;;;;;;;5.35;1.45;;;17.10;99.90;;;;;;5059705;28;38950;-80
2021/10/07 10:00:54;;;;;;;4.95;1.33;;;17.20;99.90;;;;;;5058361;28;36299;-80
2021/10/07 10:03:21;;;;;;;11.52;1.80;;;17.40;99.90;;;;;;5071993;28;38813;-78
2021/10/07 10:05:49;;;;;;;5.45;1.63;;;17.80;99.90;;;;;;5079443;28;38291;-78
2021/10/07 10:08:17;;;;;;;6.25;1.23;;;17.70;99.90;;;;;;5077994;28;37974;-78
2021/10/07 10:10:45;;;;;;;7.60;1.17;;;17.80;99.90;;;;;;5075127;28;35905;-80
2021/10/07 10:13:13;;;;;;;8.45;1.77;;;17.60;99.90;;;;;;5057446;28;37718;-80
2021/10/07 10:15:40;;;;;;;17.10;2.38;;;17.80;99.90;;;;;;5058917;28;38562;-80
2021/10/07 10:18:11;;;;;;;6.57;1.42;;;17.60;99.90;;;;;;5066242;28;37134;-80
2021/10/07 10:20:40;;;;;;;3.83;0.90;;;17.40;99.90;;;;;;5075864;28;36786;-80
2021/10/07 10:23:10;;;;;;;3.38;0.98;;;17.60;99.90;;;;;;5077529;28;38837;-80
2021/10/07 10:26:09;;;;;;;6.07;1.27;;;17.80;99.90;;;;;;5066779;28;37305;-79
2021/10/07 10:28:38;;;;;;;8.63;1.55;;;17.90;99.90;;;;;;5054029;28;48341;-80
2021/10/07 10:31:07;;;;;;;6.95;1.30;;;17.80;99.90;;;;;;5076361;28;37520;-81
2021/10/07 10:33:38;;;;;;;3.63;0.90;;;17.60;99.90;;;;;;5081031;27;38748;-81
2021/10/07 10:36:27;;;;;;;7.25;1.55;;;17.60;99.90;;;;;;5063790;28;38646;-80
2021/10/07 10:39:14;;;;;;;5.07;1.20;;;17.50;99.90;;;;;;5063185;28;38919;-81
2021/10/07 10:41:54;;;;;;;8.45;1.40;;;17.50;99.90;;;;;;5079441;28;47303;-81
2021/10/07 10:44:26;;;;;;;9.32;2.15;;;17.50;99.90;;;;;;5062578;28;39932;-80
2021/10/07 10:47:07;;;;;;;6.35;1.20;;;17.40;99.90;;;;;;5081117;28;39317;-80
2021/10/07 10:49:49;;;;;;;5.97;1.08;;;17.50;99.90;;;;;;5065273;28;47446;-80
2021/10/07 10:52:18;;;;;;;;;;;17.60;99.90;;;;;;5077051;28;36954;-78
2021/10/07 10:54:49;;;;;;;11.00;1.50;;;17.90;99.90;;;;;;5065118;28;39070;-78
2021/10/07 10:57:44;;;;;;;5.68;1.25;;;18.00;99.90;;;;;;5059999;28;38680;-78
2021/10/07 11:00:30;;;;;;;5.03;1.58;;;17.80;99.90;;;;;;5061270;28;38907;-80
2021/10/07 11:03:10;;;;;;;7.32;1.23;;;17.50;99.90;;;;;;5079572;28;37124;-80
2021/10/07 11:05:53;;;;;;;4.35;1.42;;;17.50;99.90;;;;;;5081879;28;48524;-80
2021/10/07 11:08:20;;;;;;;;;;;17.50;99.90;;;;;;5064550;28;39393;-80
2021/10/07 11:10:47;;;;;;;7.72;1.50;;;17.50;99.90;;;;;;5075369;28;38949;-81
2021/10/07 11:13:18;;;;;;;4.43;1.02;;;17.40;99.90;;;;;;5063694;28;37606;-81
2021/10/07 11:15:54;;;;;;;4.35;1.30;;;17.40;99.90;;;;;;5064711;28;39316;-81
2021/10/07 11:18:21;;;;;;;7.93;1.50;;;17.40;99.90;;;;;;5081098;27;39792;-81
2021/10/07 11:20:59;;;;;;;6.38;1.30;;;17.30;99.90;;;;;;5078643;28;39495;-80
2021/10/07 11:23:25;;;;;;;7.18;1.23;;;17.20;99.90;;;;;;5084125;27;38291;-81
2021/10/07 11:25:57;;;;;;;4.95;1.20;;;17.50;99.90;;;;;;5071977;28;37593;-80
2021/10/07 11:28:28;;;;;;;7.22;1.60;;;18.10;99.90;;;;;;5085473;27;38835;-79
2021/10/07 11:31:09;;;;;;;6.80;1.42;;;18.60;99.90;;;;;;5066454;28;37918;-79
2021/10/07 11:33:40;;;;;;;7.93;1.50;;;18.90;99.90;;;;;;5069668;28;47197;-80
2021/10/07 11:36:10;;;;;;;6.90;1.50;;;18.70;99.90;;;;;;5090731;28;39281;-80
2021/10/07 11:38:41;;;;;;;7.75;1.65;;;18.80;99.90;;;;;;5072327;28;39590;-81
2021/10/07 11:41:09;;;;;;;9.90;1.73;;;18.60;99.90;;;;;;5072669;28;37494;-82
2021/10/07 11:43:37;;;;;;;7.50;1.45;;;18.60;99.90;;;;;;5068376;28;36379;-81
2021/10/07 11:46:16;;;;;;;5.55;1.50;;;18.30;99.90;;;;;;5073963;28;37726;-81
2021/10/07 11:48:51;;;;;;;6.30;1.13;;;18.10;99.90;;;;;;5061401;28;38507;-81
2021/10/07 11:51:23;;;;;;;7.22;1.75;;;17.90;99.90;;;;;;5085598;27;39107;-80
2021/10/07 11:53:51;;;;;;;5.45;1.27;;;17.70;99.90;;;;;;5088754;28;37032;-80
2021/10/07 11:56:20;;;;;;;6.05;1.55;;;17.60;99.90;;;;;;5067524;28;40006;-80
2021/10/07 11:58:54;;;;;;;5.47;1.77;;;17.50;99.90;;;;;;5088724;28;38306;-80
2021/10/07 12:01:22;;;;;;;8.55;1.40;;;17.40;99.90;;;;;;5080639;28;37971;-81
2021/10/07 12:03:53;;;;;;;9.63;1.60;;;17.50;99.90;;;;;;5088113;27;37632;-80
2021/10/07 12:06:19;;;;;;;7.40;1.58;;;17.20;99.90;;;;;;5085384;28;38821;-80
2021/10/07 12:08:46;;;;;;;7.32;1.58;;;17.10;99.90;;;;;;5086851;28;38365;-81
2021/10/07 12:11:21;;;;;;;5.88;1.23;;;17.10;99.90;;;;;;5058798;28;37774;-81
2021/10/07 12:13:50;;;;;;;6.05;1.73;;;17.10;99.90;;;;;;5078941;27;36878;-81
2021/10/07 12:16:24;;;;;;;7.45;1.92;;;17.00;99.90;;;;;;5083692;27;38893;-80
2021/10/07 12:19:03;;;;;;;8.73;1.70;;;17.00;99.90;;;;;;5085410;28;39364;-81
2021/10/07 12:21:31;;;;;;;6.70;1.27;;;17.00;99.90;;;;;;5079990;28;46809;-81
2021/10/07 12:24:01;;;;;;;4.82;1.73;;;17.10;99.90;;;;;;5086809;28;37052;-80
2021/10/07 12:26:38;;;;;;;7.68;1.50;;;17.10;99.90;;;;;;5064714;28;46689;-80
2021/10/07 12:29:26;;;;;;;7.70;1.60;;;17.20;99.90;;;;;;5084877;27;39283;-80
2021/10/07 12:32:02;;;;;;;5.32;1.73;;;17.20;99.90;;;;;;5081739;28;39597;-81
2021/10/07 12:34:34;;;;;;;3.92;1.25;;;17.20;99.90;;;;;;5066556;28;47591;-81
2021/10/07 12:37:02;;;;;;;4.35;1.30;;;17.40;99.90;;;;;;5079506;28;40589;-81
2021/10/07 12:39:37;;;;;;;8.48;1.63;;;17.70;99.90;;;;;;5088025;28;48395;-80
2021/10/07 12:42:07;;;;;;;6.53;1.50;;;18.00;99.90;;;;;;5063252;28;37209;-80
2021/10/07 12:44:35;;;;;;;4.80;1.52;;;18.40;99.90;;;;;;5067585;28;36736;-79
2021/10/07 12:47:05;;;;;;;8.52;1.80;;;18.70;99.90;;;;;;5083405;27;39680;-77
2021/10/07 12:49:37;;;;;;;9.77;2.17;;;18.80;99.90;;;;;;5082348;28;48627;-77
2021/10/07 12:52:29;;;;;;;8.07;1.63;;;19.00;99.90;;;;;;5075600;28;38254;-77